Time;durP1;ratioP1;P1;durP2;ratioP2;P2;SDS_P1;SDS_P2;PMS_P1;PMS_P2;Temp;Humidity;BMP_temperature;BMP_pressure;BME280_temperature;BME280_humidity;BME280_pressure;Samples;Min_cycle;Max_cycle;Signal;HPM_P1;HPM_P2
2021/01/26 00:04:23;;;;;;;16.53;7.60;;;;;;;0.25;87.04;99756.42;4855677;58;1136408;-90
2021/01/26 00:09:28;;;;;;;12.27;6.47;;;;;;;0.26;87.17;99760.71;4837068;59;1134430;-89
2021/01/26 00:14:34;;;;;;;15.27;7.00;;;;;;;0.28;87.21;99770.59;4743954;60;1134938;-89
2021/01/26 00:19:39;;;;;;;19.07;8.78;;;;;;;0.28;87.31;99771.43;4819178;58;1134299;-89
2021/01/26 00:24:45;;;;;;;27.93;14.13;;;;;;;0.29;87.57;99770.97;4853113;59;1134312;-90
2021/01/26 00:29:50;;;;;;;19.90;10.25;;;;;;;0.30;87.50;99771.36;4845319;59;1136691;-90
2021/01/26 00:34:56;;;;;;;20.55;11.57;;;;;;;0.33;87.61;99780.30;4833376;58;1136523;-90
2021/01/26 00:40:03;;;;;;;15.40;8.30;;;;;;;0.33;87.60;99785.03;4837715;58;1136344;-89
2021/01/26 00:45:10;;;;;;;22.10;10.43;;;;;;;0.37;87.59;99791.40;4841928;59;1134293;-88
2021/01/26 00:50:16;;;;;;;22.23;11.20;;;;;;;0.37;87.49;99787.50;4839887;59;1136390;-89
2021/01/26 00:55:27;;;;;;;19.02;7.85;;;;;;;0.37;87.60;99790.94;4842749;59;1136395;-89
2021/01/26 01:00:37;;;;;;;17.42;8.38;;;;;;;0.37;87.65;99792.25;4887394;59;1134269;-89
2021/01/26 01:05:44;;;;;;;13.37;7.37;;;;;;;0.35;87.74;99801.88;4844367;59;1134358;-89
2021/01/26 01:10:52;;;;;;;22.47;11.93;;;;;;;0.35;87.65;99802.72;4770768;60;1134360;-89
2021/01/26 01:15:58;;;;;;;19.23;10.13;;;;;;;0.34;87.76;99797.13;4855704;59;1136752;-91
2021/01/26 01:21:04;;;;;;;12.57;7.03;;;;;;;0.34;87.77;99793.69;4839334;59;1136554;-89
2021/01/26 01:26:09;;;;;;;21.93;10.43;;;;;;;0.35;87.78;99787.11;4819887;59;1134251;-90
2021/01/26 01:31:15;;;;;;;12.80;6.42;;;;;;;0.36;87.73;99786.66;4807578;59;1136228;-89
2021/01/26 01:36:21;;;;;;;15.50;7.50;;;;;;;0.37;87.87;99792.25;4840563;59;1134477;-89
2021/01/26 01:41:32;;;;;;;19.70;10.43;;;;;;;0.35;88.23;99783.21;4738115;60;1134319;-90
2021/01/26 01:46:44;;;;;;;22.17;10.10;;;;;;;0.36;88.06;99793.16;4696241;61;1136559;-90
2021/01/26 01:51:50;;;;;;;21.40;10.67;;;;;;;0.37;88.06;99790.94;4754146;59;1136362;-89
2021/01/26 01:57:03;;;;;;;14.20;7.53;;;;;;;0.37;88.24;99792.70;4900757;59;1136460;-89
2021/01/26 02:02:11;;;;;;;24.63;11.85;;;;;;;0.35;88.19;99789.72;4852975;59;1134782;-89
2021/01/26 02:07:17;;;;;;;20.90;10.17;;;;;;;0.36;88.23;99786.66;4874644;59;1136269;-90
2021/01/26 02:12:23;;;;;;;22.67;11.30;;;;;;;0.34;88.36;99792.38;4835166;59;1136699;-89
2021/01/26 02:17:53;;;;;;;18.97;10.13;;;;;;;0.34;88.39;99795.83;4800227;59;1136376;-89
2021/01/26 02:23:26;;;;;;;18.57;9.90;;;;;;;0.37;88.22;99803.11;4802556;59;1136674;-89
2021/01/26 02:29:00;;;;;;;20.20;9.87;;;;;;;0.38;88.27;99800.44;4778212;60;1143970;-88
2021/01/26 02:34:33;;;;;;;24.30;12.98;;;;;;;0.38;88.19;99816.50;4840557;59;1134277;-89
2021/01/26 02:40:12;;;;;;;19.52;9.35;;;;;;;0.35;88.11;99809.67;4835656;59;1136494;-88
2021/01/26 02:45:28;;;;;;;21.60;10.90;;;;;;;0.35;88.08;99811.82;4845600;59;1134429;-89
2021/01/26 02:51:02;;;;;;;16.77;8.00;;;;;;;0.37;87.93;99816.11;4828913;59;1136250;-89
2021/01/26 02:56:32;;;;;;;20.50;10.90;;;;;;;0.36;87.90;99811.36;4834583;59;1134760;-89
2021/01/26 03:01:42;;;;;;;20.40;9.55;;;;;;;0.34;87.79;99805.39;4874871;59;1136473;-89
2021/01/26 03:06:51;;;;;;;17.05;9.53;;;;;;;0.34;87.77;99799.73;4848759;59;1134267;-88
2021/01/26 03:12:16;;;;;;;24.17;11.93;;;;;;;0.31;87.73;99797.27;4841779;59;1134657;-90
2021/01/26 03:17:47;;;;;;;11.87;5.63;;;;;;;0.30;87.68;99793.02;4839554;59;1136714;-88
2021/01/26 03:22:55;;;;;;;19.10;8.70;;;;;;;0.30;87.64;99804.72;4763900;60;1134682;-90
2021/01/26 03:28:04;;;;;;;25.73;12.57;;;;;;;0.30;87.58;99804.72;4809914;60;1134513;-90
2021/01/26 03:33:15;;;;;;;16.83;8.87;;;;;;;0.30;87.52;99809.07;4778833;60;1136366;-89
2021/01/26 03:38:25;;;;;;;23.53;11.57;;;;;;;0.29;87.61;99817.33;4782379;59;1134304;-89
2021/01/26 03:43:32;;;;;;;57.25;37.10;;;;;;;0.29;87.57;99809.98;4848041;59;1141823;-89
2021/01/26 03:49:16;;;;;;;29.67;14.03;;;;;;;0.27;87.44;99809.20;4755238;60;1136631;-88
2021/01/26 03:54:47;;;;;;;24.63;11.90;;;;;;;0.28;87.50;99818.70;4645464;61;1136412;-89
2021/01/26 04:00:06;;;;;;;22.73;11.10;;;;;;;0.27;87.52;99835.22;4588878;62;1136299;-89
2021/01/26 04:05:50;;;;;;;24.03;12.10;;;;;;;0.24;87.54;99828.84;4687711;61;1136436;-89
2021/01/26 04:11:09;;;;;;;19.43;10.50;;;;;;;0.21;87.67;99833.73;4711432;60;1136511;-89
2021/01/26 04:16:18;;;;;;;25.70;15.23;;;;;;;0.18;87.58;99835.16;4662499;60;1136528;-90
2021/01/26 04:21:23;;;;;;;20.77;9.07;;;;;;;0.20;87.58;99841.14;4736945;60;1136820;-88
2021/01/26 04:26:33;;;;;;;13.50;7.07;;;;;;;0.20;87.56;99841.14;4697059;61;1134863;-90
2021/01/26 04:31:38;;;;;;;14.10;7.67;;;;;;;0.20;87.39;99840.30;4701410;61;1134231;-90
2021/01/26 04:36:44;;;;;;;15.90;8.05;;;;;;;0.19;87.23;99842.05;4726310;60;1134228;-90
2021/01/26 04:42:15;;;;;;;12.10;6.70;;;;;;;0.19;87.21;99843.81;4738415;60;1134541;-89
2021/01/26 04:47:37;;;;;;;12.53;6.50;;;;;;;0.21;87.25;99844.12;4747224;61;1134843;-89
2021/01/26 04:53:09;;;;;;;17.57;9.77;;;;;;;0.23;87.18;99841.46;4715762;61;1134590;-89
2021/01/26 04:58:50;;;;;;;13.77;7.50;;;;;;;0.23;87.18;99833.66;4726431;61;1134426;-89
2021/01/26 05:04:13;;;;;;;25.93;11.60;;;;;;;0.22;87.24;99829.38;4606184;61;1134503;-89
2021/01/26 05:09:28;;;;;;;15.20;8.87;;;;;;;0.22;87.43;99838.02;4562590;62;1136472;-89
2021/01/26 05:14:38;;;;;;;14.47;7.07;;;;;;;0.24;87.43;99833.59;4571028;62;1134424;-88
2021/01/26 05:19:53;;;;;;;17.93;9.10;;;;;;;0.24;87.47;99828.39;4573409;62;1144281;-89
2021/01/26 05:25:11;;;;;;;12.00;6.73;;;;;;;0.25;87.52;99830.08;4592115;62;1134384;-89
2021/01/26 05:30:29;;;;;;;12.57;6.97;;;;;;;0.27;87.64;99833.91;4575284;62;1134638;-88
2021/01/26 05:35:36;;;;;;;14.07;6.83;;;;;;;0.27;87.60;99843.02;4575751;62;1134869;-90
2021/01/26 05:40:47;;;;;;;13.58;7.05;;;;;;;0.27;87.62;99837.81;4686065;60;1134529;-89
2021/01/26 05:45:57;;;;;;;14.60;6.97;;;;;;;0.28;87.70;99850.75;4723258;60;1134995;-88
2021/01/26 05:51:25;;;;;;;12.55;6.12;;;;;;;0.30;87.59;99855.88;4749161;60;1134531;-88
2021/01/26 05:56:31;;;;;;;9.88;5.08;;;;;;;0.27;87.46;99846.92;4735726;60;1134486;-90
2021/01/26 06:01:36;;;;;;;10.40;6.90;;;;;;;0.30;87.40;99854.13;4715037;60;1132426;-91
2021/01/26 06:07:01;;;;;;;11.43;4.77;;;;;;;0.32;87.30;99856.63;4710339;60;1134681;-89
2021/01/26 06:12:25;;;;;;;10.83;5.30;;;;;;;0.33;87.26;99859.16;4662460;60;1135334;-90
2021/01/26 06:17:37;;;;;;;14.30;6.27;;;;;;;0.31;87.02;99854.48;4655473;61;1134901;-88
2021/01/26 06:22:43;;;;;;;7.25;5.00;;;;;;;0.33;87.02;99868.72;4657982;61;1134584;-89
2021/01/26 06:28:13;;;;;;;12.83;6.67;;;;;;;0.32;87.05;99873.08;4651232;60;1132933;-88
2021/01/26 06:33:47;;;;;;;9.57;4.67;;;;;;;0.34;86.99;99876.91;4652927;60;1134930;-89
2021/01/26 06:39:06;;;;;;;6.50;3.23;;;;;;;0.32;86.79;99883.48;4662025;61;1132591;-88
2021/01/26 06:45:01;;;;;;;12.87;6.03;;;;;;;0.33;86.79;99896.88;4778507;59;1132881;-88
2021/01/26 06:50:33;;;;;;;13.53;6.93;;;;;;;0.38;86.89;99893.23;4746047;59;1134197;-88
2021/01/26 06:56:18;;;;;;;14.25;7.78;;;;;;;0.40;86.77;99905.71;4743823;60;1134258;-88
2021/01/26 07:01:50;;;;;;;11.20;5.73;;;;;;;0.42;86.76;99910.39;4714402;60;1134231;-87
2021/01/26 07:07:39;;;;;;;13.60;6.47;;;;;;;0.45;86.63;99918.06;4787332;60;1134269;-88
2021/01/26 07:13:14;;;;;;;10.90;5.97;;;;;;;0.46;86.67;99917.15;4784700;60;1134175;-88
2021/01/26 07:18:33;;;;;;;12.33;7.60;;;;;;;0.41;86.62;99913.91;4756584;59;1134222;-89
2021/01/26 07:24:02;;;;;;;14.20;7.90;;;;;;;0.45;86.65;99929.77;4790250;59;1134767;-88
2021/01/26 07:29:37;;;;;;;9.93;5.62;;;;;;;0.45;86.67;99933.67;4754248;59;1134473;-89
2021/01/26 07:35:02;;;;;;;13.90;8.00;;;;;;;0.45;86.74;99928.01;4700294;61;1132181;-88
2021/01/26 07:40:27;;;;;;;9.93;5.77;;;;;;;0.45;86.63;99930.61;4678853;60;1134766;-88
2021/01/26 07:45:51;;;;;;;18.93;8.43;;;;;;;0.50;86.63;99939.48;4694895;60;1133114;-88
2021/01/26 07:51:00;;;;;;;9.43;4.97;;;;;;;0.50;86.56;99939.48;4773816;59;1134808;-89
2021/01/26 07:56:31;;;;;;;12.73;6.70;;;;;;;0.50;86.57;99937.73;4786989;59;1132227;-89
2021/01/26 08:01:44;;;;;;;8.77;5.40;;;;;;;0.51;86.58;99936.81;4780623;59;1134682;-90
2021/01/26 08:06:53;;;;;;;;;;;;;;;0.53;86.57;99939.34;4786638;59;1133215;-88
2021/01/26 08:12:09;;;;;;;10.93;6.33;;;;;;;0.53;86.61;99944.09;4823083;58;969723;-89
2021/01/26 08:17:19;;;;;;;18.77;7.10;;;;;;;0.52;86.65;99938.50;4866680;58;1132163;-89
2021/01/26 08:22:31;;;;;;;11.73;7.07;;;;;;;0.53;86.74;99936.75;4817546;58;1134534;-88
2021/01/26 08:27:48;;;;;;;15.07;6.90;;;;;;;0.54;86.64;99943.19;4872641;58;1134463;-89
2021/01/26 08:33:13;;;;;;;13.37;7.23;;;;;;;0.56;86.63;99945.27;4892290;57;1134764;-89
2021/01/26 08:39:07;;;;;;;13.20;6.47;;;;;;;0.57;86.63;99959.96;4650607;60;1134749;-89
2021/01/26 08:44:25;;;;;;;16.37;7.67;;;;;;;0.62;86.38;99954.53;4643686;60;1134963;-89
2021/01/26 08:49:36;;;;;;;23.80;9.97;;;;;;;0.62;86.38;99954.53;4684927;60;1135055;-89
2021/01/26 08:54:57;;;;;;;12.47;7.30;;;;;;;0.63;86.59;99954.91;4695120;60;1134556;-89
2021/01/26 09:00:40;;;;;;;15.10;7.83;;;;;;;0.65;86.42;99957.00;4698492;60;1134942;-89
2021/01/26 09:05:53;;;;;;;18.50;8.20;;;;;;;0.67;86.26;99935.66;4723252;60;1134953;-89
2021/01/26 09:10:59;;;;;;;11.95;7.03;;;;;;;0.68;86.19;99937.34;4652044;60;1134735;-89
2021/01/26 09:16:13;;;;;;;12.50;7.33;;;;;;;0.69;86.08;99939.87;4833400;57;1134435;-89
2021/01/26 09:21:21;;;;;;;13.23;7.63;;;;;;;0.77;86.12;99941.27;4851042;58;1134272;-89
2021/01/26 09:26:31;;;;;;;15.97;6.83;;;;;;;0.83;85.52;99939.23;4738977;58;1134600;-89
2021/01/26 09:31:42;;;;;;;14.83;6.80;;;;;;;0.85;85.61;99942.61;4784905;58;1134561;-89
2021/01/26 09:37:12;;;;;;;18.63;7.17;;;;;;;0.81;85.57;99938.45;4834731;58;1134424;-89
2021/01/26 09:42:24;;;;;;;15.50;7.03;;;;;;;0.94;85.47;99951.27;4842194;58;1134382;-89
2021/01/26 09:47:35;;;;;;;17.80;7.83;;;;;;;0.98;85.66;99954.13;4829025;58;1135208;-89
2021/01/26 09:52:48;;;;;;;10.93;5.77;;;;;;;0.99;85.20;99957.58;4785215;59;1134748;-90
2021/01/26 09:57:59;;;;;;;14.13;4.67;;;;;;;1.01;85.19;99964.86;4766549;59;1134723;-90
2021/01/26 10:03:05;;;;;;;11.57;6.03;;;;;;;0.99;84.51;99974.05;4784002;59;1134647;-90
2021/01/26 10:08:29;;;;;;;11.13;5.60;;;;;;;1.00;84.63;99969.68;4815338;58;1134364;-89
2021/01/26 10:13:41;;;;;;;25.97;9.33;;;;;;;1.00;84.63;99987.45;4816343;58;1134660;-90
2021/01/26 10:18:54;;;;;;;20.20;10.25;;;;;;;1.02;84.90;99989.53;4804173;58;1134488;-90
2021/01/26 10:24:33;;;;;;;18.70;8.90;;;;;;;1.01;84.42;99985.69;4795452;59;1137199;-89
2021/01/26 10:29:45;;;;;;;11.60;6.87;;;;;;;1.03;84.48;99992.52;4780801;58;1134491;-87
2021/01/26 10:34:50;;;;;;;21.43;7.80;;;;;;;1.02;84.28;99984.78;4885096;58;1135228;-88
2021/01/26 10:40:24;;;;;;;15.90;8.03;;;;;;;1.01;84.35;99989.14;4817344;58;1134644;-89
2021/01/26 10:45:52;;;;;;;15.18;7.37;;;;;;;1.05;84.43;99992.45;4861425;59;1134652;-89
2021/01/26 10:51:19;;;;;;;17.20;9.50;;;;;;;1.04;83.87;99997.27;4850885;58;1135106;-88
2021/01/26 10:56:25;;;;;;;15.27;7.53;;;;;;;1.03;83.78;100002.09;4715752;60;1134554;-89
2021/01/26 11:01:32;;;;;;;16.67;9.23;;;;;;;1.05;83.58;100009.38;4718100;60;1136388;-89
2021/01/26 11:06:38;;;;;;;15.40;7.47;;;;;;;1.07;83.10;100002.80;4777818;59;1213134;-88
2021/01/26 11:11:45;;;;;;;12.78;6.70;;;;;;;1.10;82.34;99997.42;4950217;58;1137018;-89
2021/01/26 11:16:51;;;;;;;17.70;10.40;;;;;;;1.12;81.90;100012.52;4953598;58;1134332;-89
2021/01/26 11:21:57;;;;;;;24.92;10.98;;;;;;;1.13;82.57;100015.05;4928108;57;1139290;-90
2021/01/26 11:27:02;;;;;;;21.93;10.33;;;;;;;1.16;82.73;100007.10;4953242;57;1138709;-90
2021/01/26 11:32:08;;;;;;;19.07;8.90;;;;;;;1.17;82.69;100011.86;4899615;58;1138616;-89
2021/01/26 11:37:14;;;;;;;20.23;10.50;;;;;;;1.20;82.96;100022.14;4788013;58;1136450;-89
2021/01/26 11:42:20;;;;;;;18.43;9.43;;;;;;;1.20;82.64;100022.98;4782922;59;1138617;-89
2021/01/26 11:47:25;;;;;;;15.35;8.50;;;;;;;1.17;82.66;100030.09;4775350;59;1136180;-89
2021/01/26 11:52:31;;;;;;;19.80;9.57;;;;;;;1.10;82.67;100026.91;4768532;59;1136658;-88
2021/01/26 11:57:36;;;;;;;25.27;13.63;;;;;;;1.08;82.63;100031.80;4671793;59;1136327;-89
2021/01/26 12:02:42;;;;;;;28.75;12.30;;;;;;;1.08;83.14;100031.80;4736183;59;1138913;-88
2021/01/26 12:07:48;;;;;;;30.43;13.13;;;;;;;1.08;82.72;100027.44;4755595;60;1138373;-89
2021/01/26 12:12:55;;;;;;;25.13;11.53;;;;;;;1.04;82.51;100025.45;4842485;58;1138621;-89
2021/01/26 12:18:01;;;;;;;20.00;10.97;;;;;;;1.02;82.69;100029.89;4844933;58;1138487;-88
2021/01/26 12:23:08;;;;;;;21.07;8.87;;;;;;;1.00;82.26;100038.22;4882562;58;1139489;-89
2021/01/26 12:28:13;;;;;;;23.53;11.17;;;;;;;0.98;81.22;100034.84;4846279;58;1136615;-88
2021/01/26 12:33:19;;;;;;;12.73;6.30;;;;;;;0.98;81.74;100035.30;4861200;58;1138725;-88
2021/01/26 12:38:29;;;;;;;22.33;10.60;;;;;;;0.95;80.88;100040.18;4878563;57;1137092;-89
2021/01/26 12:43:38;;;;;;;12.17;6.93;;;;;;;0.95;81.84;100044.55;4882876;57;1138680;-89
2021/01/26 12:48:46;;;;;;;22.30;10.80;;;;;;;0.95;81.77;100040.64;4887469;57;1137509;-90
2021/01/26 12:53:56;;;;;;;19.02;8.23;;;;;;;0.94;82.04;100045.45;4755330;59;1139460;-89
2021/01/26 12:59:03;;;;;;;13.60;7.20;;;;;;;0.92;81.70;100034.27;4745416;59;1136402;-89
2021/01/26 13:04:12;;;;;;;22.33;11.07;;;;;;;0.92;81.70;100034.27;4843152;58;1136339;-89
2021/01/26 13:09:24;;;;;;;19.37;10.77;;;;;;;0.90;81.75;100040.02;4860400;57;1139131;-89
2021/01/26 13:14:30;;;;;;;29.15;10.05;;;;;;;0.89;81.96;100042.23;4934312;57;1139136;-89
2021/01/26 13:19:37;;;;;;;9.57;5.17;;;;;;;0.90;81.97;100040.87;4902189;57;1138808;-88
2021/01/26 13:24:44;;;;;;;18.77;8.07;;;;;;;0.92;81.83;100044.22;4881600;57;1134574;-89
2021/01/26 13:29:50;;;;;;;14.18;6.70;;;;;;;0.93;81.81;100043.31;4832498;58;1136798;-88
2021/01/26 13:34:56;;;;;;;14.17;7.10;;;;;;;0.96;81.78;100047.53;4844947;58;1136578;-88
2021/01/26 13:40:01;;;;;;;25.03;11.43;;;;;;;0.94;81.20;100050.20;4827336;58;1136265;-89
2021/01/26 13:45:09;;;;;;;15.67;7.50;;;;;;;0.94;81.56;100058.47;4885672;58;1138829;-89
2021/01/26 13:50:18;;;;;;;14.67;7.10;;;;;;;0.94;81.08;100055.87;4831210;58;1136403;-89
2021/01/26 13:55:25;;;;;;;13.83;8.17;;;;;;;0.93;80.85;100057.63;4925918;57;1136364;-88
2021/01/26 14:00:32;;;;;;;13.67;7.70;;;;;;;0.95;80.67;100062.31;4988116;57;1136384;-92
2021/01/26 14:05:38;;;;;;;16.57;8.30;;;;;;;0.98;80.40;100061.33;4945617;57;1136199;-94
2021/01/26 14:10:46;;;;;;;17.27;6.47;;;;;;;0.99;80.71;100068.23;4812534;58;1136282;-92
2021/01/26 14:15:52;;;;;;;15.18;8.03;;;;;;;0.99;80.44;100065.17;4940577;57;1136837;-92
2021/01/26 14:20:58;;;;;;;17.37;8.77;;;;;;;0.97;80.48;100064.39;4814777;59;1136115;-93
2021/01/26 14:26:04;;;;;;;12.50;4.83;;;;;;;0.94;80.24;100068.89;4777751;59;1136619;-92
2021/01/26 14:31:11;;;;;;;18.10;9.77;;;;;;;0.90;80.38;100077.31;4878346;58;1136488;-93
2021/01/26 14:36:17;;;;;;;23.97;12.33;;;;;;;0.87;81.02;100081.36;4819255;59;1137547;-93
2021/01/26 14:41:23;;;;;;;27.27;14.30;;;;;;;0.88;81.19;100093.91;4919935;57;1138379;-93
2021/01/26 14:46:30;;;;;;;14.90;8.70;;;;;;;0.91;81.51;100097.69;4922470;57;1138896;-92
2021/01/26 14:51:35;;;;;;;18.10;9.67;;;;;;;0.89;81.63;100097.75;4917886;57;1136769;-91
2021/01/26 14:56:41;;;;;;;14.43;8.50;;;;;;;0.92;81.16;100098.05;4905687;58;1136911;-91
2021/01/26 15:01:47;;;;;;;29.70;13.47;;;;;;;0.89;80.32;100100.36;4939211;56;1136446;-92
2021/01/26 15:06:53;;;;;;;35.63;15.28;;;;;;;0.91;80.64;100105.05;4960393;57;1138646;-91
2021/01/26 15:11:59;;;;;;;24.37;10.23;;;;;;;0.91;80.23;100108.10;4952193;58;1138494;-91
2021/01/26 15:17:04;;;;;;;120.80;63.33;;;;;;;0.89;79.83;100112.07;4906334;57;1138790;-91
2021/01/26 15:22:11;;;;;;;24.33;13.13;;;;;;;0.87;80.38;100113.05;4927044;57;1140463;-91
2021/01/26 15:27:17;;;;;;;28.77;13.67;;;;;;;0.89;80.68;100116.44;4925047;58;1138153;-92
2021/01/26 15:32:23;;;;;;;26.23;9.83;;;;;;;0.87;80.82;100111.75;4934706;57;1138618;-93
2021/01/26 15:37:30;;;;;;;26.17;13.37;;;;;;;0.84;81.34;100120.53;4889319;58;1137246;-92
2021/01/26 15:42:35;;;;;;;29.03;13.77;;;;;;;0.81;81.76;100124.56;4748581;60;1138569;-92
2021/01/26 15:47:41;;;;;;;18.57;10.97;;;;;;;0.77;81.80;100132.11;5055497;57;21161;-93
2021/01/26 15:52:48;;;;;;;91.23;26.67;;;;;;;0.76;81.87;100125.70;4962483;58;1134338;-93
2021/01/26 15:57:54;;;;;;;39.35;14.13;;;;;;;0.74;81.15;100127.06;4932051;58;1138533;-95
2021/01/26 16:02:59;;;;;;;49.67;20.80;;;;;;;0.74;81.29;100137.93;4929031;58;1138403;-92
2021/01/26 16:08:05;;;;;;;76.03;28.13;;;;;;;0.74;81.42;100140.53;4937126;58;1139424;-94
2021/01/26 16:13:11;;;;;;;35.17;13.70;;;;;;;0.74;80.70;100141.83;4914082;58;1138587;-93
2021/01/26 16:18:16;;;;;;;178.67;63.20;;;;;;;0.70;80.37;100136.75;4858084;58;1138493;-95
2021/01/26 16:23:22;;;;;;;101.57;30.70;;;;;;;0.69;80.81;100141.56;4783796;59;1140693;-95
2021/01/26 16:28:28;;;;;;;62.40;20.27;;;;;;;0.69;80.82;100141.56;4787295;59;1140474;-92
2021/01/26 16:33:33;;;;;;;35.60;16.97;;;;;;;0.66;81.18;100144.30;4815342;59;1138617;-94
2021/01/26 16:38:39;;;;;;;203.10;62.03;;;;;;;0.63;81.38;100154.83;4757676;59;1138375;-93
2021/01/26 16:43:45;;;;;;;60.10;23.03;;;;;;;0.60;81.45;100143.28;4892118;58;1140577;-94
2021/01/26 16:48:51;;;;;;;64.42;19.27;;;;;;;0.61;81.50;100141.03;4913953;58;1138688;-94
2021/01/26 16:53:57;;;;;;;40.97;16.87;;;;;;;0.60;81.33;100143.73;4926511;58;1138526;-94
2021/01/26 16:59:05;;;;;;;32.37;13.50;;;;;;;0.61;81.41;100141.03;4923753;57;1138661;-93
2021/01/26 17:04:10;;;;;;;50.43;18.00;;;;;;;0.61;81.44;100133.72;4948411;57;1138494;-93
2021/01/26 17:09:16;;;;;;;38.80;13.73;;;;;;;0.58;81.36;100133.39;4935919;57;1138809;-93
2021/01/26 17:14:23;;;;;;;49.53;17.73;;;;;;;0.56;81.20;100127.39;4924321;57;1138882;-96
2021/01/26 17:19:29;;;;;;;29.07;14.40;;;;;;;0.56;81.47;100127.85;4731365;58;1139830;-94
2021/01/26 17:24:37;;;;;;;23.40;12.43;;;;;;;0.51;81.77;100138.45;4798866;59;1138645;-94
2021/01/26 17:29:44;;;;;;;24.47;12.80;;;;;;;0.45;82.16;100141.78;4845776;58;1138862;-96
2021/01/26 17:34:53;;;;;;;25.83;13.17;;;;;;;0.41;82.24;100151.46;4986543;57;1136120;-95
2021/01/26 17:39:58;;;;;;;29.50;15.47;;;;;;;0.33;82.08;100153.06;4959856;57;1138451;-94
2021/01/26 17:45:07;;;;;;;39.03;18.37;;;;;;;0.33;82.39;100159.56;4777207;59;1138653;-95
2021/01/26 17:50:14;;;;;;;32.07;15.20;;;;;;;0.32;82.39;100168.28;4812654;60;1136476;-94
2021/01/26 17:55:22;;;;;;;25.10;11.83;;;;;;;0.28;82.67;100165.89;4868068;60;21183;-96
2021/01/26 18:00:33;;;;;;;39.60;19.27;;;;;;;0.27;82.66;100172.84;4842714;59;21194;-95
2021/01/26 18:05:39;;;;;;;33.53;16.13;;;;;;;0.24;82.74;100177.31;4946981;57;1134121;-95
2021/01/26 18:10:45;;;;;;;25.53;11.97;;;;;;;0.23;83.44;100175.17;4930802;57;1138613;-95
2021/01/26 18:15:53;;;;;;;25.37;11.18;;;;;;;0.25;83.63;100167.31;4865070;58;1138324;-96
2021/01/26 18:20:59;;;;;;;22.30;9.88;;;;;;;0.23;83.76;100168.67;4885466;58;1138848;-96
2021/01/26 18:26:06;;;;;;;70.25;37.67;;;;;;;0.25;83.74;100173.36;4850001;58;1136779;-95
2021/01/26 18:31:13;;;;;;;25.77;10.83;;;;;;;0.24;83.55;100168.22;4905288;58;1136185;-94
2021/01/26 18:36:19;;;;;;;19.20;10.93;;;;;;;0.21;83.72;100163.13;4967069;58;21161;-94
2021/01/26 18:41:25;;;;;;;20.43;10.23;;;;;;;0.20;83.72;100185.69;4968358;57;21170;-93
2021/01/26 18:46:31;;;;;;;27.70;13.40;;;;;;;0.20;83.74;100186.14;4847654;58;1134220;-94
2021/01/26 18:51:38;;;;;;;32.37;12.27;;;;;;;0.23;83.64;100189.47;4917977;57;1138386;-95
2021/01/26 18:56:49;;;;;;;28.77;15.67;;;;;;;0.25;84.25;100190.27;4864262;57;1138355;-96
2021/01/26 19:01:52;;;;;;;27.45;13.80;;;;;;;0.27;84.37;100183.25;4903535;57;1138388;-94
2021/01/26 19:06:59;;;;;;;19.23;9.60;;;;;;;0.28;84.49;100191.44;4875825;57;1138559;-95
2021/01/26 19:12:07;;;;;;;32.73;14.30;;;;;;;0.28;84.55;100184.94;4845782;57;1136451;-96
2021/01/26 19:17:13;;;;;;;33.03;15.53;;;;;;;0.30;84.48;100188.33;4973433;57;1136343;-93
2021/01/26 19:22:19;;;;;;;24.13;11.63;;;;;;;0.33;84.60;100191.23;4922714;57;1138589;-95
2021/01/26 19:27:27;;;;;;;55.70;18.97;;;;;;;0.37;84.51;100185.00;4920044;57;1136423;-94
2021/01/26 19:32:37;;;;;;;19.00;7.80;;;;;;;0.40;84.49;100182.73;4850412;58;1138613;-93
2021/01/26 19:37:46;;;;;;;20.30;10.35;;;;;;;0.42;84.58;100185.67;4897002;57;1136332;-93
2021/01/26 19:43:00;;;;;;;25.53;12.30;;;;;;;0.44;84.65;100180.41;4951439;57;1138175;-94
2021/01/26 19:48:02;;;;;;;31.13;12.47;;;;;;;0.46;84.65;100188.52;4861381;58;1138501;-93
2021/01/26 19:53:09;;;;;;;19.20;9.43;;;;;;;0.47;84.70;100191.52;4873717;57;1138460;-92
2021/01/26 19:58:16;;;;;;;20.50;8.43;;;;;;;0.47;84.83;100181.11;4861253;58;1136122;-92
2021/01/26 20:03:21;;;;;;;22.70;10.30;;;;;;;0.44;84.77;100174.75;4911437;58;1136190;-92
2021/01/26 20:08:27;;;;;;;25.40;13.23;;;;;;;0.51;84.71;100181.38;4901497;58;1138469;-95
2021/01/26 20:13:33;;;;;;;26.70;11.67;;;;;;;0.53;84.64;100190.42;4865347;58;1138289;-93
2021/01/26 20:18:39;;;;;;;20.37;10.53;;;;;;;0.52;84.76;100190.88;4871712;58;1138360;-94
2021/01/26 20:23:45;;;;;;;28.87;13.53;;;;;;;0.53;84.62;100184.77;4878329;58;1138307;-94
2021/01/26 20:28:51;;;;;;;26.93;13.03;;;;;;;0.53;84.64;100183.91;4834840;59;1138412;-96
2021/01/26 20:33:58;;;;;;;23.50;12.40;;;;;;;0.52;84.58;100190.88;4856316;58;1138528;-93
2021/01/26 20:39:05;;;;;;;40.75;17.98;;;;;;;0.51;84.67;100198.28;4882684;58;1138327;-94
2021/01/26 20:44:12;;;;;;;21.60;11.57;;;;;;;0.48;84.52;100189.30;4822251;59;1138279;-93
2021/01/26 20:49:20;;;;;;;32.77;17.27;;;;;;;0.48;84.68;100191.91;4862145;59;1138292;-94
2021/01/26 20:54:26;;;;;;;23.60;11.07;;;;;;;0.49;84.53;100194.89;4921622;58;1136390;-94
2021/01/26 20:59:32;;;;;;;26.13;12.93;;;;;;;0.49;84.52;100194.05;4877160;59;1138436;-93
2021/01/26 21:04:38;;;;;;;27.77;13.73;;;;;;;0.49;84.52;100200.10;4860632;59;1138844;-92
2021/01/26 21:09:45;;;;;;;18.07;10.30;;;;;;;0.50;84.57;100201.80;4860538;58;1139168;-93
2021/01/26 21:14:51;;;;;;;21.77;11.17;;;;;;;0.51;84.62;100196.98;4859615;58;1138490;-95
2021/01/26 21:19:56;;;;;;;18.40;8.43;;;;;;;0.53;84.60;100208.18;4861150;59;1138294;-94
2021/01/26 21:25:04;;;;;;;21.77;9.67;;;;;;;0.55;84.66;100206.81;4846137;58;1136259;-93
2021/01/26 21:30:13;;;;;;;18.40;9.67;;;;;;;0.55;84.61;100207.66;4891279;58;1136294;-92
2021/01/26 21:35:25;;;;;;;22.10;10.13;;;;;;;0.58;84.55;100211.91;4873233;58;1136358;-92
2021/01/26 21:40:34;;;;;;;19.67;9.35;;;;;;;0.59;84.52;100201.89;4875627;57;1138486;-93
2021/01/26 21:45:42;;;;;;;24.50;11.90;;;;;;;0.58;84.53;100204.09;4833642;57;1136787;-93
2021/01/26 21:50:47;;;;;;;20.30;9.27;;;;;;;0.58;84.51;100207.55;4928458;57;1138280;-93
2021/01/26 21:55:53;;;;;;;22.63;10.60;;;;;;;0.59;84.49;100211.00;4849835;59;1136590;-94
2021/01/26 22:00:59;;;;;;;17.30;10.25;;;;;;;0.60;84.37;100212.69;4919604;58;1138311;-93
2021/01/26 22:06:05;;;;;;;23.07;10.07;;;;;;;0.62;84.38;100216.89;4950851;58;1146773;-95
2021/01/26 22:11:11;;;;;;;20.53;10.60;;;;;;;0.65;84.28;100212.87;4889987;58;1138301;-93
2021/01/26 22:16:19;;;;;;;17.37;8.47;;;;;;;0.64;84.18;100216.37;4874492;58;1138500;-94
2021/01/26 22:21:24;;;;;;;14.50;8.10;;;;;;;0.63;84.10;100217.28;4869965;59;1137147;-93
2021/01/26 22:26:30;;;;;;;19.30;9.03;;;;;;;0.61;84.11;100213.90;4872098;58;1136884;-94
2021/01/26 22:31:37;;;;;;;15.20;7.87;;;;;;;0.65;83.91;100226.34;4918524;58;1134322;-95
2021/01/26 22:36:42;;;;;;;16.20;10.13;;;;;;;0.66;83.86;100226.73;4883290;58;1136172;-95
2021/01/26 22:41:48;;;;;;;17.43;9.33;;;;;;;0.65;83.76;100221.98;4892719;59;1138302;-93
2021/01/26 22:46:54;;;;;;;16.50;8.60;;;;;;;0.65;83.67;100219.38;4856270;59;1136181;-94
2021/01/26 22:52:00;;;;;;;19.52;10.20;;;;;;;0.66;83.61;100229.33;4863833;59;1136335;-95
2021/01/26 22:57:06;;;;;;;19.35;8.15;;;;;;;0.66;83.41;100231.93;4860339;58;1138824;-92
2021/01/26 23:02:12;;;;;;;11.40;6.80;;;;;;;0.65;83.41;100235.44;4882239;58;1136697;-94
2021/01/26 23:07:19;;;;;;;17.13;7.57;;;;;;;0.65;83.24;100233.69;4880763;58;1136373;-92
2021/01/26 23:12:24;;;;;;;14.83;6.10;;;;;;;0.66;83.09;100235.84;4903459;59;1136322;-94
2021/01/26 23:17:30;;;;;;;13.03;7.13;;;;;;;0.69;83.08;100240.92;4871566;58;1136683;-94
2021/01/26 23:22:36;;;;;;;12.50;7.03;;;;;;;0.68;82.85;100236.17;4911606;59;1136236;-94
2021/01/26 23:27:42;;;;;;;12.70;6.60;;;;;;;0.70;82.83;100233.05;4879020;58;1136264;-92
2021/01/26 23:32:48;;;;;;;18.98;10.82;;;;;;;0.70;82.66;100234.80;4862472;58;1136340;-93
2021/01/26 23:37:54;;;;;;;18.53;9.93;;;;;;;0.68;82.23;100227.06;4857609;58;1139062;-92